Berlin — 9HA2295 — position and weather

sailwx.info

Track history (hours):
 
Tides and Currents Weather Stations Pressure Air Temp Water Temp Dewpoint Dewpoint Depression Visibility Wind Speed Wind Dir Waves Ship Positions

Berlin

Last reported at 2016-Feb-06 22:33 UTC. Time now 2016-Feb-06 23:26 UTC.
Position N 45°26' E 012°19'.

Length 140 m; draft 5 m.

Type: Passenger vessel. MMSI: 248277000.

Date/timePositionNaut miles runAvg speedWind from/ knotsBaromVisibWave heightAir tempDewpointWater temp
2016-Feb-06 22:33N 45°26' E 012°19'0 0.0
2016-Feb-06 21:30N 45°26' E 012°19'0 0.0
2016-Feb-06 20:33N 45°26' E 012°19'0 0.0
2016-Feb-06 19:33N 45°26' E 012°19'0 0.0
2016-Feb-06 18:33N 45°26' E 012°19'0 0.0
2016-Feb-06 17:33N 45°26' E 012°19'0 0.0
2016-Feb-06 16:33N 45°26' E 012°19'0 0.0
2016-Feb-06 15:33N 45°26' E 012°19'0 0.0
2016-Feb-06 14:33N 45°26' E 012°19'0 0.0
2016-Feb-06 13:33N 45°26' E 012°19'0 0.0
2016-Feb-06 12:33N 45°26' E 012°19'3 2.8
2016-Feb-06 11:33N 45°25' E 012°22'6 6.3
2016-Feb-06 10:33N 45°23' E 012°31'5 4.7
2016-Feb-06 09:33N 45°21' E 012°37'1212.5
2016-Feb-06 08:34N 45°13' E 012°50'1413.9
2016-Feb-06 07:32N 45°04' E 013°05'26310.1
2016-Feb-05 05:33N 42°32' E 018°03'1413.8
2016-Feb-05 04:33N 42°19' E 018°10'1313.4
2016-Feb-05 03:33N 42°07' E 018°17'1312.8
2016-Feb-05 02:31N 41°54' E 018°24'238 8.5
2016-Feb-03 22:31N 38°25' E 020°51'1414.2
2016-Feb-03 21:33N 38°16' E 021°04'1414.0
2016-Feb-03 20:33N 38°15' E 021°22'7 0.3
2016-Feb-02 23:33N 38°16' E 021°31'9 9.3
2016-Feb-02 22:34N 38°14' E 021°20'10 9.6
2016-Feb-02 21:34N 38°06' E 021°12'10 9.6
2016-Feb-02 20:33N 37°59' E 021°05'9 9.3
2016-Feb-02 19:34N 37°50' E 021°02'10 9.7
2016-Feb-02 18:30N 37°40' E 021°07'10 9.7
2016-Feb-02 17:27N 37°31' E 021°12'117 6.9
2016-Feb-02 00:32N 37°21' E 023°39'1414.6
2016-Feb-01 23:33N 37°35' E 023°42'1313.4
2016-Feb-01 22:33N 37°48' E 023°37'8 8.0
2016-Feb-01 21:34N 37°56' E 023°37'1 0.9
2016-Feb-01 20:27N 37°56' E 023°38'0 0.0
2016-Feb-01 19:30N 37°56' E 023°38'0 0.0
2016-Feb-01 18:30N 37°56' E 023°38'0 0.0
2016-Feb-01 17:33N 37°56' E 023°38'0 0.0
2016-Feb-01 16:24N 37°56' E 023°38'0 0.0
2016-Feb-01 15:30N 37°56' E 023°38'0 0.0
2016-Feb-01 14:30N 37°56' E 023°38'0 0.0
2016-Feb-01 13:30N 37°56' E 023°38'0 0.0
2016-Feb-01 12:30N 37°56' E 023°38'0 0.0
2016-Feb-01 11:33N 37°56' E 023°38'0 0.0
2016-Feb-01 10:33N 37°56' E 023°38'0 0.0
2016-Feb-01 09:24N 37°56' E 023°38'0 0.0
2016-Feb-01 08:27N 37°56' E 023°38'0 0.0
2016-Feb-01 07:33N 37°56' E 023°38'0 0.0
2016-Feb-01 06:27N 37°56' E 023°38'0 0.0
2016-Feb-01 05:33N 37°56' E 023°38'2 2.0
2016-Feb-01 04:33N 37°55' E 023°36'1111.4
2016-Feb-01 03:33N 37°45' E 023°43'11711.5
2016-Jan-31 17:20N 35°58' E 024°44'  
2016-Jan-28 21:16N 34°40' E 032°25'911.4
2016-Jan-28 20:31N 34°37' E 032°34'9 9.8
2016-Jan-28 19:33N 34°34' E 032°45'1010.0
2016-Jan-28 18:33N 34°32' E 032°57'8 7.8
2016-Jan-28 17:33N 34°37' E 033°04'3 3.3
2016-Jan-28 16:31N 34°39' E 033°01'0 0.0
2016-Jan-28 15:31N 34°39' E 033°01'0 0.0
2016-Jan-28 14:31N 34°39' E 033°01'0 0.0
2016-Jan-28 13:31N 34°39' E 033°01'0 0.0
2016-Jan-28 12:31N 34°39' E 033°01'0 0.0
2016-Jan-28 11:31N 34°39' E 033°01'0 0.0
2016-Jan-28 10:31N 34°39' E 033°01'0 0.0
2016-Jan-28 09:31N 34°39' E 033°01'0 0.0
2016-Jan-28 08:31N 34°39' E 033°01'4 4.1
2016-Jan-28 07:33N 34°37' E 033°05'1212.0
2016-Jan-28 06:33N 34°25' E 033°05'1212.0
2016-Jan-28 05:33N 34°13' E 033°04'  
Track history (hours):
 
Tides and Currents Weather Stations Pressure Air Temp Water Temp Dewpoint Dewpoint Depression Visibility Wind Speed Wind Dir Waves Ship Positions

Berlin

Last reported at 2016-Feb-06 22:33 UTC. Time now 2016-Feb-06 23:26 UTC.
Position N 45°26' E 012°19'.

Length 140 m; draft 5 m.

Type: Passenger vessel. MMSI: 248277000.

Date/timePositionNaut miles runAvg speedWind from/ knotsBaromVisibWave heightAir tempDewpointWater temp
2016-Feb-06 22:33N 45°26' E 012°19'0 0.0
2016-Feb-06 21:30N 45°26' E 012°19'0 0.0
2016-Feb-06 20:33N 45°26' E 012°19'0 0.0
2016-Feb-06 19:33N 45°26' E 012°19'0 0.0
2016-Feb-06 18:33N 45°26' E 012°19'0 0.0
2016-Feb-06 17:33N 45°26' E 012°19'0 0.0
2016-Feb-06 16:33N 45°26' E 012°19'0 0.0
2016-Feb-06 15:33N 45°26' E 012°19'0 0.0
2016-Feb-06 14:33N 45°26' E 012°19'0 0.0
2016-Feb-06 13:33N 45°26' E 012°19'0 0.0
2016-Feb-06 12:33N 45°26' E 012°19'3 2.8
2016-Feb-06 11:33N 45°25' E 012°22'6 6.3
2016-Feb-06 10:33N 45°23' E 012°31'5 4.7
2016-Feb-06 09:33N 45°21' E 012°37'1212.5
2016-Feb-06 08:34N 45°13' E 012°50'1413.9
2016-Feb-06 07:32N 45°04' E 013°05'26310.1
2016-Feb-05 05:33N 42°32' E 018°03'1413.8
2016-Feb-05 04:33N 42°19' E 018°10'1313.4
2016-Feb-05 03:33N 42°07' E 018°17'1312.8
2016-Feb-05 02:31N 41°54' E 018°24'238 8.5
2016-Feb-03 22:31N 38°25' E 020°51'1414.2
2016-Feb-03 21:33N 38°16' E 021°04'1414.0
2016-Feb-03 20:33N 38°15' E 021°22'7 0.3
2016-Feb-02 23:33N 38°16' E 021°31'9 9.3
2016-Feb-02 22:34N 38°14' E 021°20'10 9.6
2016-Feb-02 21:34N 38°06' E 021°12'10 9.6
2016-Feb-02 20:33N 37°59' E 021°05'9 9.3
2016-Feb-02 19:34N 37°50' E 021°02'10 9.7
2016-Feb-02 18:30N 37°40' E 021°07'10 9.7
2016-Feb-02 17:27N 37°31' E 021°12'117 6.9
2016-Feb-02 00:32N 37°21' E 023°39'1414.6
2016-Feb-01 23:33N 37°35' E 023°42'1313.4
2016-Feb-01 22:33N 37°48' E 023°37'8 8.0
2016-Feb-01 21:34N 37°56' E 023°37'1 0.9
2016-Feb-01 20:27N 37°56' E 023°38'0 0.0
2016-Feb-01 19:30N 37°56' E 023°38'0 0.0
2016-Feb-01 18:30N 37°56' E 023°38'0 0.0
2016-Feb-01 17:33N 37°56' E 023°38'0 0.0
2016-Feb-01 16:24N 37°56' E 023°38'0 0.0
2016-Feb-01 15:30N 37°56' E 023°38'0 0.0
2016-Feb-01 14:30N 37°56' E 023°38'0 0.0
2016-Feb-01 13:30N 37°56' E 023°38'0 0.0
2016-Feb-01 12:30N 37°56' E 023°38'0 0.0
2016-Feb-01 11:33N 37°56' E 023°38'0 0.0
2016-Feb-01 10:33N 37°56' E 023°38'0 0.0
2016-Feb-01 09:24N 37°56' E 023°38'0 0.0
2016-Feb-01 08:27N 37°56' E 023°38'0 0.0
2016-Feb-01 07:33N 37°56' E 023°38'0 0.0
2016-Feb-01 06:27N 37°56' E 023°38'0 0.0
2016-Feb-01 05:33N 37°56' E 023°38'2 2.0
2016-Feb-01 04:33N 37°55' E 023°36'1111.4
2016-Feb-01 03:33N 37°45' E 023°43'11711.5
2016-Jan-31 17:20N 35°58' E 024°44'  
2016-Jan-28 21:16N 34°40' E 032°25'911.4
2016-Jan-28 20:31N 34°37' E 032°34'9 9.8
2016-Jan-28 19:33N 34°34' E 032°45'1010.0
2016-Jan-28 18:33N 34°32' E 032°57'8 7.8
2016-Jan-28 17:33N 34°37' E 033°04'3 3.3
2016-Jan-28 16:31N 34°39' E 033°01'0 0.0
2016-Jan-28 15:31N 34°39' E 033°01'0 0.0
2016-Jan-28 14:31N 34°39' E 033°01'0 0.0
2016-Jan-28 13:31N 34°39' E 033°01'0 0.0
2016-Jan-28 12:31N 34°39' E 033°01'0 0.0
2016-Jan-28 11:31N 34°39' E 033°01'0 0.0
2016-Jan-28 10:31N 34°39' E 033°01'0 0.0
2016-Jan-28 09:31N 34°39' E 033°01'0 0.0
2016-Jan-28 08:31N 34°39' E 033°01'4 4.1
2016-Jan-28 07:33N 34°37' E 033°05'1212.0
2016-Jan-28 06:33N 34°25' E 033°05'1212.0
2016-Jan-28 05:33N 34°13' E 033°04'  

Dump ship's entire track history